Time;durP1;ratioP1;P1;durP2;ratioP2;P2;SDS_P1;SDS_P2;PMS_P1;PMS_P2;Temp;Humidity;BMP_temperature;BMP_pressure;BME280_temperature;BME280_humidity;BME280_pressure;Samples;Min_cycle;Max_cycle;Signal;HPM_P1;HPM_P2
2021/11/23 00:00:42;;;;;;;6.15;3.40;;;16.80;83.80;;;;;;5096514;28;20051;-69
2021/11/23 00:03:08;;;;;;;6.00;2.95;;;16.90;83.60;;;;;;5099322;28;22223;-68
2021/11/23 00:05:34;;;;;;;6.82;3.83;;;16.90;83.50;;;;;;5098791;28;20032;-69
2021/11/23 00:08:00;;;;;;;6.45;3.60;;;16.90;83.20;;;;;;5086628;28;20039;-69
2021/11/23 00:10:26;;;;;;;5.95;3.30;;;16.90;83.10;;;;;;5095721;28;20048;-69
2021/11/23 00:12:52;;;;;;;6.30;3.30;;;16.90;83.00;;;;;;5096251;28;20155;-69
2021/11/23 00:15:17;;;;;;;3.78;2.75;;;16.90;82.60;;;;;;5090934;28;20043;-68
2021/11/23 00:17:43;;;;;;;5.85;3.22;;;17.00;83.00;;;;;;5097244;28;20499;-69
2021/11/23 00:20:09;;;;;;;7.68;3.33;;;17.00;82.30;;;;;;5080754;28;20146;-68
2021/11/23 00:22:35;;;;;;;6.43;2.85;;;17.00;82.20;;;;;;5096010;28;20081;-69
2021/11/23 00:25:02;;;;;;;6.30;2.90;;;17.00;81.80;;;;;;5098293;28;20395;-69
2021/11/23 00:27:28;;;;;;;6.40;2.50;;;17.00;82.00;;;;;;5097752;28;20062;-69
2021/11/23 00:29:54;;;;;;;6.05;3.00;;;16.90;81.90;;;;;;5102375;28;20047;-69
2021/11/23 00:32:20;;;;;;;4.75;3.15;;;16.90;82.00;;;;;;5096598;28;20031;-69
2021/11/23 00:34:45;;;;;;;3.92;2.42;;;16.90;82.10;;;;;;5096350;28;20023;-69
2021/11/23 00:37:11;;;;;;;3.00;1.88;;;16.80;81.90;;;;;;5096000;28;20110;-69
2021/11/23 00:39:37;;;;;;;6.50;2.40;;;16.80;81.50;;;;;;5098113;28;20039;-69
2021/11/23 00:42:03;;;;;;;4.50;2.47;;;16.70;82.00;;;;;;5084592;28;20519;-70
2021/11/23 00:44:29;;;;;;;4.72;2.78;;;16.70;82.20;;;;;;5097511;28;20043;-70
2021/11/23 00:46:54;;;;;;;2.72;1.83;;;16.70;82.10;;;;;;5096547;28;20459;-70
2021/11/23 00:49:20;;;;;;;4.28;1.83;;;16.80;82.00;;;;;;5096805;28;20050;-69
2021/11/23 00:51:46;;;;;;;5.03;2.13;;;16.80;81.20;;;;;;5085754;28;20051;-69
2021/11/23 00:54:12;;;;;;;4.38;2.30;;;16.70;81.20;;;;;;5096127;28;20399;-71
2021/11/23 00:56:38;;;;;;;5.00;2.00;;;16.80;81.50;;;;;;5095032;28;20134;-68
2021/11/23 00:59:03;;;;;;;4.22;2.22;;;16.80;81.50;;;;;;5097601;28;20035;-69
2021/11/23 01:01:30;;;;;;;3.35;1.92;;;16.80;81.50;;;;;;5096753;28;20059;-69
2021/11/23 01:03:56;;;;;;;4.63;2.03;;;16.90;81.50;;;;;;5094733;28;20159;-69
2021/11/23 01:06:22;;;;;;;3.75;1.98;;;16.80;81.20;;;;;;5097289;28;20126;-69
2021/11/23 01:08:49;;;;;;;4.32;1.75;;;16.90;81.10;;;;;;5098891;28;20152;-69
2021/11/23 01:11:17;;;;;;;2.95;1.75;;;16.80;80.90;;;;;;5094740;28;20027;-69
2021/11/23 01:13:44;;;;;;;3.55;1.88;;;16.90;80.90;;;;;;5097101;28;20594;-69
2021/11/23 01:16:10;;;;;;;4.35;1.60;;;16.90;80.80;;;;;;5096732;28;20106;-69
2021/11/23 01:18:37;;;;;;;3.22;1.45;;;16.90;80.90;;;;;;5096621;28;22398;-68
2021/11/23 01:21:04;;;;;;;3.50;1.63;;;16.80;81.10;;;;;;5095770;28;20479;-68
2021/11/23 01:23:31;;;;;;;2.33;1.50;;;16.80;80.90;;;;;;5095671;27;20051;-68
2021/11/23 01:25:57;;;;;;;4.10;2.00;;;16.80;81.00;;;;;;5101845;28;20111;-68
2021/11/23 01:28:23;;;;;;;3.13;1.27;;;16.80;81.00;;;;;;5097568;28;20043;-69
2021/11/23 01:30:50;;;;;;;3.63;1.90;;;16.80;81.00;;;;;;5097218;28;20074;-68
2021/11/23 01:33:17;;;;;;;3.42;1.65;;;16.80;81.50;;;;;;5095034;28;20047;-68
2021/11/23 01:35:43;;;;;;;3.00;1.30;;;16.80;81.20;;;;;;5096552;28;20072;-69
2021/11/23 01:38:09;;;;;;;3.83;1.50;;;16.80;81.30;;;;;;5096413;28;20036;-69
2021/11/23 01:40:35;;;;;;;2.40;1.08;;;16.70;81.30;;;;;;5095943;28;20047;-69
2021/11/23 01:43:05;;;;;;;2.97;1.40;;;16.70;81.60;;;;;;5088766;28;20090;-68
2021/11/23 01:45:35;;;;;;;2.10;1.30;;;16.70;81.90;;;;;;5094703;28;20090;-69
2021/11/23 01:48:02;;;;;;;2.67;1.60;;;16.60;82.50;;;;;;5097019;28;20033;-69
2021/11/23 01:50:28;;;;;;;3.95;1.85;;;16.60;82.20;;;;;;5063278;28;20474;-69
2021/11/23 01:52:56;;;;;;;2.80;1.27;;;16.60;82.20;;;;;;5095439;28;20065;-69
2021/11/23 01:55:22;;;;;;;3.20;1.55;;;16.70;82.00;;;;;;5095938;28;20052;-68
2021/11/23 01:57:48;;;;;;;2.65;1.20;;;16.70;81.90;;;;;;5096234;28;20515;-68
2021/11/23 02:00:14;;;;;;;3.35;1.38;;;16.70;81.90;;;;;;5096057;28;20101;-68
2021/11/23 02:02:40;;;;;;;3.20;1.40;;;16.70;81.80;;;;;;5095048;28;22207;-69
2021/11/23 02:05:07;;;;;;;2.90;1.05;;;16.80;81.80;;;;;;5084709;28;20050;-69
2021/11/23 02:07:32;;;;;;;2.35;1.20;;;16.80;81.60;;;;;;5097003;28;20431;-68
2021/11/23 02:09:59;;;;;;;2.58;1.20;;;16.80;81.30;;;;;;5097078;28;20052;-68
2021/11/23 02:12:26;;;;;;;3.13;1.35;;;16.80;81.20;;;;;;5094150;28;20049;-68
2021/11/23 02:14:52;;;;;;;1.67;1.10;;;16.90;80.80;;;;;;5095843;28;20114;-70
2021/11/23 02:17:18;;;;;;;3.22;1.40;;;16.80;80.50;;;;;;5095667;28;20136;-70
2021/11/23 02:19:55;;;;;;;2.92;1.42;;;16.80;80.40;;;;;;5094612;28;20115;-69
2021/11/23 02:22:21;;;;;;;2.13;1.10;;;16.80;80.40;;;;;;5102687;28;20082;-70
2021/11/23 02:24:47;;;;;;;2.72;1.15;;;16.80;80.40;;;;;;5097759;28;20044;-69
2021/11/23 02:27:13;;;;;;;3.03;1.30;;;16.80;80.20;;;;;;5099108;28;20047;-69
2021/11/23 02:29:39;;;;;;;2.17;1.08;;;16.80;80.20;;;;;;5099148;28;20040;-69
2021/11/23 02:32:05;;;;;;;1.85;0.90;;;16.80;80.20;;;;;;5101067;27;20146;-69
2021/11/23 02:34:31;;;;;;;2.75;0.70;;;16.80;80.10;;;;;;5097837;28;20126;-69
2021/11/23 02:36:57;;;;;;;2.60;1.23;;;16.80;80.00;;;;;;5097545;28;20043;-69
2021/11/23 02:39:24;;;;;;;1.77;1.02;;;16.80;80.20;;;;;;5097707;28;20046;-69
2021/11/23 02:41:50;;;;;;;2.95;0.90;;;16.80;80.30;;;;;;5088004;28;20044;-69
2021/11/23 02:44:15;;;;;;;2.25;0.80;;;16.80;80.40;;;;;;5099722;28;20518;-69
2021/11/23 02:46:41;;;;;;;3.95;1.05;;;16.80;80.90;;;;;;5097698;28;20383;-69
2021/11/23 02:49:07;;;;;;;4.05;1.25;;;16.80;80.40;;;;;;5098374;28;20453;-68
2021/11/23 02:51:35;;;;;;;2.90;0.90;;;16.90;80.40;;;;;;5101678;28;20649;-68
2021/11/23 02:54:01;;;;;;;1.85;0.82;;;16.80;80.30;;;;;;5098720;28;20122;-69
2021/11/23 02:56:28;;;;;;;4.30;0.95;;;16.90;80.30;;;;;;5099765;28;20097;-68
2021/11/23 02:58:54;;;;;;;1.63;0.60;;;16.80;79.40;;;;;;5100041;28;20032;-69
2021/11/23 03:01:23;;;;;;;2.08;0.80;;;16.70;79.60;;;;;;5097945;28;20043;-68
2021/11/23 03:03:50;;;;;;;1.95;0.73;;;16.70;80.20;;;;;;5100058;28;20040;-69
2021/11/23 03:06:18;;;;;;;2.03;0.85;;;16.70;80.30;;;;;;5096992;28;20072;-69
2021/11/23 03:08:46;;;;;;;2.50;0.60;;;16.70;80.80;;;;;;5099595;28;20036;-70
2021/11/23 03:11:12;;;;;;;3.05;0.93;;;16.70;80.10;;;;;;5098744;28;20042;-69
2021/11/23 03:13:38;;;;;;;1.52;0.45;;;16.70;80.30;;;;;;5087013;28;20044;-71
2021/11/23 03:16:04;;;;;;;2.75;0.80;;;16.50;79.40;;;;;;5079999;28;20064;-70
2021/11/23 03:18:30;;;;;;;3.03;0.43;;;16.10;78.90;;;;;;5104079;28;20080;-68
2021/11/23 03:20:56;;;;;;;3.85;0.70;;;15.50;79.50;;;;;;5096770;28;20036;-70
2021/11/23 03:23:22;;;;;;;3.05;0.60;;;15.10;80.50;;;;;;5098743;28;20105;-69
2021/11/23 03:25:48;;;;;;;2.97;0.55;;;14.60;81.60;;;;;;5103354;28;20070;-69
2021/11/23 03:28:15;;;;;;;2.25;0.50;;;14.10;82.80;;;;;;5086781;28;20055;-69
2021/11/23 03:30:41;;;;;;;2.42;0.57;;;13.70;84.10;;;;;;5080971;28;20097;-70
2021/11/23 03:33:08;;;;;;;4.97;1.02;;;13.40;85.30;;;;;;5098507;28;20481;-70
2021/11/23 03:35:40;;;;;;;3.92;0.88;;;13.10;86.20;;;;;;5096287;28;20068;-70
2021/11/23 03:38:08;;;;;;;2.58;0.73;;;12.90;87.30;;;;;;5096996;28;20063;-70
2021/11/23 03:40:37;;;;;;;1.95;0.50;;;12.70;88.00;;;;;;5102900;28;20060;-70
2021/11/23 03:43:04;;;;;;;4.18;0.65;;;12.60;88.60;;;;;;5098169;28;20043;-70
2021/11/23 03:45:31;;;;;;;4.70;0.90;;;12.50;89.10;;;;;;5102790;28;20489;-70
2021/11/23 03:47:57;;;;;;;3.00;0.85;;;12.40;89.30;;;;;;5096195;28;20116;-69
2021/11/23 03:50:23;;;;;;;2.35;0.90;;;12.30;89.60;;;;;;5097710;28;20131;-69
2021/11/23 03:52:50;;;;;;;7.60;1.15;;;12.20;90.00;;;;;;5081541;28;20138;-70
2021/11/23 03:55:18;;;;;;;4.13;0.68;;;12.20;90.20;;;;;;5096835;28;20028;-71
2021/11/23 03:57:45;;;;;;;6.70;1.00;;;12.10;90.40;;;;;;5096981;28;20043;-69
2021/11/23 04:00:14;;;;;;;4.35;0.73;;;12.10;90.60;;;;;;5069785;28;20039;-70
2021/11/23 04:02:41;;;;;;;6.28;0.65;;;12.00;90.60;;;;;;5103456;28;20170;-70
2021/11/23 04:05:08;;;;;;;2.50;0.70;;;12.00;90.70;;;;;;5098762;28;20039;-70
2021/11/23 04:07:34;;;;;;;4.28;0.63;;;11.90;90.80;;;;;;5079332;28;20052;-69
2021/11/23 04:10:00;;;;;;;4.32;0.75;;;11.90;90.90;;;;;;5080991;28;20092;-69
2021/11/23 04:12:26;;;;;;;3.25;0.77;;;11.80;91.00;;;;;;5097686;28;20102;-70
2021/11/23 04:14:52;;;;;;;3.78;1.00;;;11.80;90.90;;;;;;5078627;28;20032;-70
2021/11/23 04:17:18;;;;;;;4.43;0.88;;;11.70;90.90;;;;;;5086212;28;20044;-69
2021/11/23 04:19:44;;;;;;;4.93;0.90;;;11.60;90.90;;;;;;5062365;28;20088;-69
2021/11/23 04:22:10;;;;;;;4.13;0.80;;;11.50;91.00;;;;;;5096249;28;20411;-69
2021/11/23 04:24:35;;;;;;;5.85;0.75;;;11.40;91.20;;;;;;5097211;28;20043;-69
2021/11/23 04:27:02;;;;;;;2.22;0.60;;;11.30;91.40;;;;;;5090947;28;20051;-70
2021/11/23 04:29:28;;;;;;;1.48;0.60;;;11.20;91.50;;;;;;5090915;28;20051;-70
2021/11/23 04:31:54;;;;;;;3.05;0.73;;;11.10;91.70;;;;;;5096561;28;20085;-70
2021/11/23 04:34:20;;;;;;;3.90;0.77;;;11.10;91.80;;;;;;5085822;28;20925;-70
2021/11/23 04:36:46;;;;;;;4.72;0.65;;;11.00;91.90;;;;;;5096640;28;20546;-70
2021/11/23 04:39:11;;;;;;;4.60;1.00;;;10.90;92.20;;;;;;5096120;28;20491;-70
2021/11/23 04:41:39;;;;;;;3.47;0.80;;;10.80;92.30;;;;;;5096209;28;20122;-69
2021/11/23 04:44:05;;;;;;;7.78;1.08;;;10.80;92.40;;;;;;5095782;28;20035;-70
2021/11/23 04:46:31;;;;;;;5.65;0.90;;;10.70;92.40;;;;;;5085729;28;20451;-69
2021/11/23 04:48:56;;;;;;;6.32;1.20;;;10.60;92.50;;;;;;5101326;28;20388;-69
2021/11/23 04:51:23;;;;;;;5.22;1.02;;;10.60;92.70;;;;;;5079983;28;20044;-69
2021/11/23 04:53:49;;;;;;;5.10;1.15;;;10.70;92.80;;;;;;5089669;28;20043;-69
2021/11/23 04:56:15;;;;;;;3.50;1.08;;;10.70;92.70;;;;;;5096418;28;20043;-68
2021/11/23 04:58:41;;;;;;;5.95;1.08;;;10.70;93.00;;;;;;5078360;28;20040;-69
2021/11/23 05:01:07;;;;;;;7.00;1.33;;;10.80;93.20;;;;;;5085640;28;20074;-70
2021/11/23 05:03:33;;;;;;;4.10;0.82;;;10.80;93.10;;;;;;5094857;28;20075;-69
2021/11/23 05:05:58;;;;;;;5.40;1.50;;;10.80;93.00;;;;;;5071966;28;20067;-70
2021/11/23 05:08:24;;;;;;;4.43;1.30;;;10.80;92.90;;;;;;5084613;28;20073;-69
2021/11/23 05:10:50;;;;;;;6.35;1.48;;;10.80;93.00;;;;;;5095076;28;20047;-70
2021/11/23 05:13:16;;;;;;;6.93;1.30;;;10.80;93.00;;;;;;5095782;28;20351;-70
2021/11/23 05:15:41;;;;;;;4.72;1.20;;;10.80;93.00;;;;;;5086055;28;20176;-65
2021/11/23 05:18:07;;;;;;;8.77;1.75;;;10.80;93.20;;;;;;5078411;28;20480;-66
2021/11/23 05:20:33;;;;;;;3.97;0.88;;;10.80;93.20;;;;;;5095645;28;20468;-66
2021/11/23 05:22:59;;;;;;;6.50;1.17;;;10.80;93.20;;;;;;5096412;28;20043;-65
2021/11/23 05:25:24;;;;;;;7.32;1.15;;;10.80;93.10;;;;;;5095710;28;20051;-65
2021/11/23 05:27:50;;;;;;;8.52;1.40;;;10.80;93.30;;;;;;5101178;28;20568;-64
2021/11/23 05:30:16;;;;;;;4.85;0.98;;;10.90;93.10;;;;;;5095101;28;20039;-64
2021/11/23 05:32:42;;;;;;;3.38;1.45;;;10.80;93.30;;;;;;5083980;28;20467;-66
2021/11/23 05:35:09;;;;;;;7.78;1.33;;;10.90;93.00;;;;;;5101428;28;20047;-64
2021/11/23 05:37:35;;;;;;;5.68;0.85;;;10.80;93.10;;;;;;5088302;28;20428;-65
2021/11/23 05:40:02;;;;;;;6.60;1.33;;;10.80;92.70;;;;;;5094538;28;20138;-69
2021/11/23 05:42:28;;;;;;;5.38;1.17;;;10.80;92.70;;;;;;5101784;28;20048;-70
2021/11/23 05:44:54;;;;;;;6.32;1.38;;;10.80;92.60;;;;;;5089352;28;20035;-69
2021/11/23 05:47:19;;;;;;;5.75;1.50;;;10.70;92.50;;;;;;5095307;28;20031;-69
2021/11/23 05:49:45;;;;;;;5.25;1.20;;;10.70;92.70;;;;;;5095987;28;20066;-71
2021/11/23 05:52:11;;;;;;;7.35;1.50;;;10.70;92.80;;;;;;5077368;28;20059;-70
2021/11/23 05:54:37;;;;;;;8.98;1.88;;;10.60;92.80;;;;;;5089148;28;20047;-70
2021/11/23 05:57:03;;;;;;;8.25;2.75;;;10.60;92.70;;;;;;5083766;28;20032;-70
2021/11/23 05:59:29;;;;;;;9.30;1.80;;;10.60;92.70;;;;;;5089280;28;20035;-71
2021/11/23 06:01:54;;;;;;;6.50;2.28;;;10.60;92.60;;;;;;5100769;28;20122;-69
2021/11/23 06:04:20;;;;;;;3.80;1.42;;;10.60;92.70;;;;;;5094262;28;20036;-70
2021/11/23 06:06:46;;;;;;;6.07;1.90;;;10.60;92.70;;;;;;5096985;28;20073;-71
2021/11/23 06:09:12;;;;;;;5.93;1.80;;;10.60;92.80;;;;;;5094305;28;20036;-72
2021/11/23 06:11:38;;;;;;;12.02;2.60;;;10.60;92.80;;;;;;5099936;28;20044;-72
2021/11/23 06:14:04;;;;;;;8.27;1.85;;;10.60;92.80;;;;;;5083724;28;20036;-71
2021/11/23 06:16:31;;;;;;;4.28;1.25;;;10.60;92.60;;;;;;5094916;28;20118;-70
2021/11/23 06:18:57;;;;;;;9.52;1.77;;;10.50;92.50;;;;;;5099887;28;20976;-71
2021/11/23 06:21:25;;;;;;;6.63;1.65;;;10.50;92.40;;;;;;5093988;28;20036;-71
2021/11/23 06:23:52;;;;;;;4.80;1.08;;;10.40;92.30;;;;;;5094616;28;20407;-71
2021/11/23 06:26:20;;;;;;;6.13;1.42;;;10.40;92.20;;;;;;5072216;28;20426;-71
2021/11/23 06:28:46;;;;;;;6.80;1.60;;;10.40;92.40;;;;;;5094923;28;20069;-64
2021/11/23 06:31:12;;;;;;;12.02;1.65;;;10.40;92.40;;;;;;5077832;28;20055;-65
2021/11/23 06:33:38;;;;;;;13.90;2.45;;;10.30;92.20;;;;;;5094685;28;20040;-65
2021/11/23 06:36:03;;;;;;;7.70;1.40;;;10.30;92.20;;;;;;5094438;28;20057;-65
2021/11/23 06:38:29;;;;;;;8.68;1.58;;;10.30;92.20;;;;;;5095980;28;20075;-64
2021/11/23 06:40:55;;;;;;;8.13;1.40;;;10.30;92.20;;;;;;5084259;28;20035;-64
2021/11/23 06:43:20;;;;;;;8.13;1.40;;;10.20;92.40;;;;;;5083444;28;20428;-64
2021/11/23 06:45:46;;;;;;;6.03;1.90;;;10.30;92.60;;;;;;5077394;28;20407;-65
2021/11/23 06:48:12;;;;;;;7.38;1.50;;;10.30;92.70;;;;;;5062412;28;20040;-65
2021/11/23 06:50:40;;;;;;;8.82;1.77;;;10.30;92.80;;;;;;5078011;28;20052;-65
2021/11/23 06:53:08;;;;;;;4.82;1.02;;;10.30;92.90;;;;;;5094103;28;20032;-66
2021/11/23 06:55:35;;;;;;;6.00;1.45;;;10.30;93.10;;;;;;5094588;28;20044;-66
2021/11/23 06:58:02;;;;;;;6.75;1.17;;;10.30;93.10;;;;;;5095728;28;20061;-66
2021/11/23 07:00:29;;;;;;;9.10;1.98;;;10.30;93.20;;;;;;5100718;28;20317;-65
2021/11/23 07:02:55;;;;;;;9.00;1.52;;;10.40;93.20;;;;;;5093862;28;20036;-65
2021/11/23 07:05:22;;;;;;;9.02;1.92;;;10.30;92.90;;;;;;5093924;28;20043;-68
2021/11/23 07:07:47;;;;;;;4.38;1.05;;;10.30;92.90;;;;;;5094117;28;20048;-68
2021/11/23 07:10:14;;;;;;;8.13;1.02;;;10.30;92.90;;;;;;5097759;28;20089;-67
2021/11/23 07:12:41;;;;;;;9.30;1.42;;;10.40;92.90;;;;;;5096428;28;20047;-67
2021/11/23 07:15:10;;;;;;;4.15;1.20;;;10.30;92.70;;;;;;5098680;28;20086;-67
2021/11/23 07:17:36;;;;;;;6.65;1.33;;;10.40;92.90;;;;;;5103830;28;20506;-68
2021/11/23 07:20:03;;;;;;;6.35;1.30;;;10.30;93.00;;;;;;5098717;28;21925;-67
2021/11/23 07:22:28;;;;;;;10.40;2.85;;;10.30;93.10;;;;;;5098026;28;20449;-67
2021/11/23 07:24:54;;;;;;;5.00;1.20;;;10.30;92.90;;;;;;5086171;28;20029;-68
2021/11/23 07:27:20;;;;;;;9.90;1.42;;;10.30;92.80;;;;;;5097127;28;20044;-67
2021/11/23 07:29:45;;;;;;;7.03;1.33;;;10.30;92.80;;;;;;5097295;28;20488;-68
2021/11/23 07:32:11;;;;;;;6.85;1.45;;;10.30;92.80;;;;;;5086730;28;20498;-67
2021/11/23 07:34:38;;;;;;;6.60;1.60;;;10.20;92.90;;;;;;5103540;28;20130;-67
2021/11/23 07:37:04;;;;;;;7.15;1.38;;;10.30;93.30;;;;;;5090373;28;20092;-67
2021/11/23 07:39:29;;;;;;;11.82;2.15;;;10.30;93.30;;;;;;5099364;28;20039;-67
2021/11/23 07:41:55;;;;;;;5.38;1.77;;;10.30;93.00;;;;;;5068944;28;20122;-67
2021/11/23 07:44:21;;;;;;;14.20;3.30;;;10.20;93.00;;;;;;5097294;28;20092;-67
2021/11/23 07:46:47;;;;;;;10.63;2.00;;;10.30;93.00;;;;;;5097507;28;20040;-68
2021/11/23 07:49:13;;;;;;;9.70;1.45;;;10.20;92.90;;;;;;5086525;28;20032;-68
2021/11/23 07:51:39;;;;;;;6.07;1.30;;;10.20;93.20;;;;;;5097388;28;20052;-67
2021/11/23 07:54:06;;;;;;;8.75;1.25;;;10.30;93.60;;;;;;5095708;28;20035;-67
2021/11/23 07:56:32;;;;;;;12.30;2.67;;;10.30;93.60;;;;;;5097245;28;20518;-67
2021/11/23 07:58:58;;;;;;;9.65;2.15;;;10.30;93.30;;;;;;5086442;28;21991;-67
2021/11/23 08:01:24;;;;;;;11.65;2.35;;;10.20;93.20;;;;;;5096116;28;20032;-67
2021/11/23 08:03:49;;;;;;;7.20;1.88;;;10.30;93.60;;;;;;5096832;28;20039;-68
2021/11/23 08:06:15;;;;;;;5.90;1.60;;;10.30;93.80;;;;;;5079963;28;20460;-68
2021/11/23 08:08:42;;;;;;;7.50;1.98;;;10.30;93.50;;;;;;5096074;28;20072;-68
2021/11/23 08:11:08;;;;;;;10.73;2.63;;;10.30;93.20;;;;;;5079605;28;20035;-68
2021/11/23 08:13:34;;;;;;;8.15;2.03;;;10.40;93.20;;;;;;5102043;28;20052;-66
2021/11/23 08:16:04;;;;;;;8.40;1.60;;;10.40;93.30;;;;;;5097542;28;20039;-67
2021/11/23 08:18:34;;;;;;;6.03;1.77;;;10.50;93.30;;;;;;5097250;27;20081;-67
2021/11/23 08:21:02;;;;;;;6.10;1.63;;;10.40;93.10;;;;;;5097677;28;20040;-67
2021/11/23 08:23:28;;;;;;;6.72;1.55;;;10.40;93.10;;;;;;5074007;28;22309;-67
2021/11/23 08:25:54;;;;;;;5.25;1.55;;;10.40;93.00;;;;;;5085420;28;20051;-66
2021/11/23 08:28:23;;;;;;;6.05;1.63;;;10.40;93.00;;;;;;5086573;28;20118;-63
2021/11/23 08:30:50;;;;;;;4.82;1.50;;;10.40;92.90;;;;;;5102791;28;20050;-62
2021/11/23 08:33:16;;;;;;;6.38;1.58;;;10.30;92.90;;;;;;5096793;28;20048;-63
2021/11/23 08:35:42;;;;;;;5.55;1.77;;;10.30;92.80;;;;;;5102393;28;20032;-62
2021/11/23 08:38:08;;;;;;;7.28;0.90;;;10.30;92.90;;;;;;5102677;28;20044;-62
2021/11/23 08:40:33;;;;;;;5.82;1.73;;;10.30;92.90;;;;;;5098974;28;20044;-62
2021/11/23 08:42:59;;;;;;;8.10;1.30;;;10.30;92.90;;;;;;5102362;28;20047;-63
2021/11/23 08:45:25;;;;;;;3.50;1.42;;;10.20;92.80;;;;;;5085094;28;20038;-67
2021/11/23 08:47:51;;;;;;;8.13;2.22;;;10.20;92.90;;;;;;5095320;28;20075;-67
2021/11/23 08:50:18;;;;;;;9.90;1.90;;;10.40;93.10;;;;;;5063650;28;20048;-63
2021/11/23 08:52:44;;;;;;;8.98;1.55;;;10.70;93.00;;;;;;5102264;28;20093;-62
2021/11/23 08:55:10;;;;;;;6.72;1.63;;;10.90;92.60;;;;;;5096575;28;20039;-63
2021/11/23 08:57:36;;;;;;;4.88;1.10;;;11.00;92.30;;;;;;5095724;28;20044;-63
2021/11/23 09:00:19;;;;;;;4.18;1.20;;;10.90;92.00;;;;;;5085512;28;20038;-63
2021/11/23 09:02:49;;;;;;;4.53;0.88;;;10.70;92.00;;;;;;5094498;28;20120;-64
2021/11/23 09:05:16;;;;;;;2.03;0.80;;;10.80;92.30;;;;;;5096177;28;20383;-63
2021/11/23 09:07:42;;;;;;;7.10;1.38;;;11.00;92.30;;;;;;5095465;28;20044;-61
2021/11/23 09:10:22;;;;;;;7.00;1.75;;;11.30;92.20;;;;;;5097093;28;20519;-63
2021/11/23 09:12:51;;;;;;;2.72;0.93;;;11.60;92.00;;;;;;5094696;28;20039;-62
2021/11/23 09:15:18;;;;;;;5.93;1.45;;;12.00;91.70;;;;;;5093876;28;20035;-62
2021/11/23 09:17:43;;;;;;;5.82;1.40;;;12.20;91.40;;;;;;5101484;28;20044;-63
2021/11/23 09:20:11;;;;;;;5.65;1.10;;;12.50;91.10;;;;;;5096244;28;20670;-63
2021/11/23 09:22:37;;;;;;;5.00;1.05;;;12.70;90.90;;;;;;5094152;28;20048;-61
2021/11/23 09:25:08;;;;;;;5.00;0.90;;;12.90;90.60;;;;;;5090591;28;20123;-64
2021/11/23 09:27:34;;;;;;;2.97;0.70;;;13.00;90.50;;;;;;5093655;28;20503;-65
2021/11/23 09:30:00;;;;;;;6.35;1.33;;;13.20;90.40;;;;;;5094903;28;20123;-64
2021/11/23 09:32:29;;;;;;;6.53;1.35;;;13.30;90.30;;;;;;5094118;28;20225;-63
2021/11/23 09:34:56;;;;;;;4.00;1.20;;;13.50;90.20;;;;;;5100229;28;20032;-63
2021/11/23 09:37:22;;;;;;;6.90;1.02;;;13.60;90.00;;;;;;5095960;28;20455;-62
2021/11/23 09:39:48;;;;;;;5.80;1.25;;;13.70;89.50;;;;;;5095127;28;20048;-62
2021/11/23 09:42:14;;;;;;;3.33;0.90;;;13.70;89.20;;;;;;5093719;28;20043;-64
2021/11/23 09:44:42;;;;;;;4.80;0.90;;;13.80;89.00;;;;;;5097828;28;20039;-64
2021/11/23 09:47:08;;;;;;;5.22;1.40;;;14.00;88.90;;;;;;5097154;28;20104;-64
2021/11/23 09:49:34;;;;;;;6.28;1.15;;;14.00;88.50;;;;;;5087320;28;20059;-64
2021/11/23 09:52:00;;;;;;;9.32;1.73;;;14.10;88.30;;;;;;5095631;28;20100;-64
2021/11/23 09:54:26;;;;;;;4.30;1.23;;;14.30;88.10;;;;;;5094341;28;20047;-64
2021/11/23 09:56:52;;;;;;;5.47;1.10;;;14.40;87.70;;;;;;5093627;28;20949;-64
2021/11/23 09:59:18;;;;;;;7.07;1.58;;;14.50;87.20;;;;;;5094858;28;20176;-61
2021/11/23 10:01:54;;;;;;;7.97;1.60;;;14.50;88.70;;;;;;5095349;28;20043;-61
2021/11/23 10:04:22;;;;;;;11.05;2.85;;;14.50;90.50;;;;;;5094006;28;20043;-61
2021/11/23 10:06:59;;;;;;;7.75;1.63;;;14.70;90.80;;;;;;5095871;28;20110;-60
2021/11/23 10:09:38;;;;;;;5.28;1.20;;;14.90;90.20;;;;;;5094691;28;20934;-60
2021/11/23 10:12:14;;;;;;;6.03;1.83;;;15.20;90.00;;;;;;5095180;28;20040;-60
2021/11/23 10:14:40;;;;;;;9.30;1.63;;;15.20;89.50;;;;;;5095159;28;20553;-60
2021/11/23 10:17:24;;;;;;;7.03;1.73;;;15.30;88.70;;;;;;5095908;28;20787;-60
2021/11/23 10:19:49;;;;;;;7.80;2.83;;;15.30;88.10;;;;;;5095734;28;20054;-61
2021/11/23 10:22:30;;;;;;;8.55;2.03;;;15.40;88.30;;;;;;5095284;28;20411;-59
2021/11/23 10:25:01;;;;;;;9.68;1.77;;;15.50;87.30;;;;;;5093674;28;20044;-60
2021/11/23 10:27:27;;;;;;;8.88;1.92;;;15.50;87.60;;;;;;5098039;28;20043;-60
2021/11/23 10:29:52;;;;;;;7.05;1.35;;;15.60;86.60;;;;;;5095106;28;20369;-60
2021/11/23 10:32:18;;;;;;;9.57;1.73;;;15.70;86.80;;;;;;5096222;28;20090;-60
2021/11/23 10:34:45;;;;;;;7.57;1.13;;;15.80;86.80;;;;;;5095135;28;20042;-60
2021/11/23 10:37:31;;;;;;;5.75;1.10;;;15.70;85.20;;;;;;5096193;28;20044;-59
2021/11/23 10:40:17;;;;;;;5.85;0.82;;;15.70;85.30;;;;;;5091767;28;20032;-59
2021/11/23 10:42:48;;;;;;;8.38;1.70;;;15.70;84.20;;;;;;5096226;28;20047;-59
2021/11/23 10:45:14;;;;;;;10.05;1.83;;;15.70;84.30;;;;;;5098556;28;20059;-60
2021/11/23 10:47:42;;;;;;;8.82;1.10;;;15.70;84.30;;;;;;5098608;28;20036;-61
2021/11/23 10:50:11;;;;;;;7.20;1.40;;;15.70;84.50;;;;;;5098649;28;21801;-60
2021/11/23 10:52:40;;;;;;;6.82;1.77;;;15.80;84.40;;;;;;5099558;28;20123;-60
2021/11/23 10:55:17;;;;;;;4.22;1.27;;;15.80;84.60;;;;;;5098434;28;20036;-60
2021/11/23 10:57:43;;;;;;;8.50;2.10;;;15.80;84.90;;;;;;5097499;28;20093;-60
2021/11/23 11:00:11;;;;;;;6.03;1.45;;;15.90;85.70;;;;;;5098519;28;20975;-60
2021/11/23 11:02:39;;;;;;;5.32;1.65;;;16.10;86.50;;;;;;5097869;28;20038;-61
2021/11/23 11:05:09;;;;;;;9.02;2.08;;;16.40;86.10;;;;;;5099411;28;20115;-60
2021/11/23 11:07:37;;;;;;;4.82;1.83;;;16.50;85.90;;;;;;5096708;28;20127;-60
2021/11/23 11:10:04;;;;;;;7.68;1.73;;;16.50;85.60;;;;;;5081146;28;20039;-61
2021/11/23 11:12:30;;;;;;;6.30;1.88;;;16.50;84.90;;;;;;5098718;28;20115;-61
2021/11/23 11:14:58;;;;;;;5.15;1.35;;;16.50;85.00;;;;;;5099411;28;20177;-61
2021/11/23 11:17:25;;;;;;;6.03;2.25;;;16.50;85.00;;;;;;5099484;27;20047;-60
2021/11/23 11:19:53;;;;;;;11.70;2.10;;;16.60;85.00;;;;;;5102576;28;20050;-60
2021/11/23 11:22:22;;;;;;;5.97;1.30;;;16.70;84.60;;;;;;5102853;28;20036;-61
2021/11/23 11:25:12;;;;;;;5.57;1.20;;;16.80;84.50;;;;;;5098824;28;20048;-60
2021/11/23 11:27:48;;;;;;;6.95;1.55;;;16.90;82.70;;;;;;5096264;28;20067;-60
2021/11/23 11:30:32;;;;;;;4.68;1.10;;;16.90;82.80;;;;;;5097207;28;20052;-61
2021/11/23 11:33:23;;;;;;;2.47;0.50;;;16.90;82.00;;;;;;5084676;28;20093;-61
2021/11/23 11:35:51;;;;;;;5.18;1.48;;;16.40;78.60;;;;;;5097966;28;20040;-67
2021/11/23 11:38:26;;;;;;;2.95;0.52;;;15.90;81.00;;;;;;5098721;28;20047;-61
2021/11/23 11:40:56;;;;;;;6.85;1.08;;;15.40;82.10;;;;;;5096843;28;20055;-62
2021/11/23 11:43:32;;;;;;;3.15;0.57;;;15.00;84.10;;;;;;5098053;28;20043;-63
2021/11/23 11:45:58;;;;;;;4.15;1.00;;;14.70;85.60;;;;;;5098656;28;20036;-63
2021/11/23 11:48:33;;;;;;;3.83;1.00;;;14.70;87.20;;;;;;5099171;28;20112;-65
2021/11/23 11:51:03;;;;;;;6.22;1.50;;;14.90;88.80;;;;;;5096725;28;20052;-63
2021/11/23 11:53:47;;;;;;;7.28;1.85;;;15.20;89.70;;;;;;5102668;28;20048;-65
2021/11/23 11:56:15;;;;;;;7.18;1.40;;;15.50;89.00;;;;;;5097042;28;20114;-65
2021/11/23 11:58:51;;;;;;;6.55;1.52;;;15.70;88.90;;;;;;5096559;28;20035;-63
2021/11/23 12:01:33;;;;;;;5.20;1.88;;;15.70;88.90;;;;;;5097179;28;20055;-63
2021/11/23 12:04:11;;;;;;;7.95;1.67;;;15.80;88.90;;;;;;5099787;28;20039;-63
2021/11/23 12:07:09;;;;;;;6.97;1.90;;;16.00;88.50;;;;;;5101997;28;20384;-63
2021/11/23 12:09:51;;;;;;;10.77;1.60;;;16.10;88.20;;;;;;5099159;28;20846;-63
2021/11/23 12:12:17;;;;;;;5.40;1.67;;;16.20;87.80;;;;;;5098221;28;20560;-63
2021/11/23 12:14:59;;;;;;;7.38;1.88;;;16.30;87.30;;;;;;5096445;28;20052;-63
2021/11/23 12:17:26;;;;;;;7.70;1.92;;;16.30;86.80;;;;;;5097692;28;20036;-62
2021/11/23 12:20:41;;;;;;;6.38;2.05;;;16.40;86.60;;;;;;5098552;28;20058;-62
2021/11/23 12:23:42;;;;;;;6.25;1.58;;;16.40;86.50;;;;;;5047354;28;20120;-63
2021/11/23 12:26:16;;;;;;;9.93;2.35;;;16.40;86.20;;;;;;5084723;28;21220;-63
2021/11/23 12:29:13;;;;;;;8.45;1.90;;;16.50;86.10;;;;;;5097633;28;20071;-63
2021/11/23 12:31:48;;;;;;;5.68;1.80;;;16.50;85.70;;;;;;5098513;28;20151;-64
2021/11/23 12:34:14;;;;;;;9.30;2.50;;;16.60;86.00;;;;;;5097122;28;20050;-63
2021/11/23 12:37:01;;;;;;;5.28;2.03;;;16.60;85.70;;;;;;5097265;28;20048;-63
2021/11/23 12:39:39;;;;;;;6.47;2.00;;;16.60;84.90;;;;;;5097712;28;20043;-63
2021/11/23 12:42:09;;;;;;;10.10;2.63;;;16.60;85.30;;;;;;5094469;28;20039;-63
2021/11/23 12:44:38;;;;;;;5.68;2.17;;;16.60;85.40;;;;;;5096600;28;20040;-63
2021/11/23 12:47:13;;;;;;;7.50;2.42;;;16.70;85.50;;;;;;5099455;28;20039;-63
2021/11/23 12:49:40;;;;;;;5.72;2.03;;;16.80;85.20;;;;;;5097186;28;20079;-63